Latest Weather Observations for Coldstream

IDV60901

Issued at 3:41 pm EST Saturday 5 September 2015 (issued every 10 minutes, with the page automatically refreshed every 10 minutes)

About weather observations | Map of Melbourne area stations | Latest observations for Melbourne area | Other Formats
Station Details ID: 086383 Name: COLDSTREAM Lat: -37.72 Lon: 145.41 Height: 83.0 m
Data from the previous 72 hours. | See also: Recent months at Coldstream
Date/Time
EST
Tmp

°C
App
Tmp
°C
Dew
Point
°C
Rel
Hum
%
Delta-T

°C
Wind Press
QNH
hPa
Press
MSL
hPa
Rain
since
9 am
mm
Dir
 
Spd
km/h
Gust
km/h
Spd
kts
Gust
kts
05/03:30pm 13.5 11.6 6.6 63 3.3 SE 6 7 3 4 1022.4 1022.5 0.2
05/03:00pm 14.5 14.1 8.2 66 3.2 CALM 0 6 0 3 1022.3 1022.4 0.2
05/02:30pm 13.4 13.1 8.5 72 2.5 CALM 0 6 0 3 1022.4 1022.5 0.2
05/02:00pm 14.1 13.1 8.7 70 2.7 WSW 4 9 2 5 1022.7 1022.8 0.2
05/01:30pm 12.5 10.8 8.2 75 2.1 NW 7 11 4 6 1023.2 1023.3 0.2
05/01:00pm 12.0 9.9 8.1 77 1.9 WNW 9 13 5 7 1023.5 1023.6 0.2
05/12:30pm 12.4 10.9 8.5 77 1.9 N 6 11 3 6 1023.9 1024.0 0.2
05/12:00pm 12.3 11.9 9.9 85 1.2 SE 2 6 1 3 1024.4 1024.5 0.2
05/11:30am 10.6 9.6 8.9 89 0.8 WNW 4 7 2 4 1024.7 1024.8 0.2
05/11:00am 10.2 8.7 8.6 90 0.8 WSW 6 7 3 4 1025.1 1025.2 0.0
05/10:30am 10.7 9.1 7.8 82 1.4 S 6 9 3 5 1025.0 1025.1 0.0
05/10:00am 10.9 9.1 7.8 81 1.5 SW 7 11 4 6 1025.3 1025.4 0.0
05/09:30am 10.8 8.8 7.3 79 1.7 WSW 7 9 4 5 1025.3 1025.4 0.0
05/09:00am 10.7 8.5 7.9 83 1.4 SW 9 11 5 6 1025.4 1025.5 0.0
05/08:30am 10.1 9.6 7.7 85 1.2 CALM 0 0 0 0 1025.4 1025.5 0.0
05/08:00am 9.1 8.5 7.4 89 0.8 CALM 0 0 0 0 1025.3 1025.4 0.0
05/07:30am 8.7 8.2 7.8 94 0.4 CALM 0 0 0 0 1024.8 1024.9 0.0
05/07:00am 8.3 7.7 7.4 94 0.4 CALM 0 0 0 0 1024.5 1024.6 0.0
05/06:30am 8.3 7.7 7.2 93 0.5 CALM 0 0 0 0 1024.3 1024.4 0.0
05/06:00am 8.3 7.7 7.2 93 0.5 CALM 0 0 0 0 1024.0 1024.1 0.0
05/05:30am 8.3 7.2 7.1 92 0.6 W 2 6 1 3 1023.9 1024.0 0.0
05/05:00am 8.4 7.7 7.0 91 0.7 CALM 0 6 0 3 1023.6 1023.7 0.0
05/04:30am 8.6 7.9 7.1 90 0.7 CALM 0 0 0 0 1023.6 1023.7 0.0
05/04:00am 8.3 7.6 6.9 91 0.6 CALM 0 0 0 0 1023.3 1023.4 0.0
05/03:30am 8.6 8.0 7.2 91 0.7 CALM 0 0 0 0 1023.2 1023.3 0.0
05/03:00am 8.7 8.0 7.0 89 0.8 CALM 0 2 0 1 1023.5 1023.6 0.0
05/02:30am 8.7 8.0 7.0 89 0.8 CALM 0 0 0 0 1023.7 1023.8 0.0
05/02:00am 8.9 8.1 6.7 86 1.0 CALM 0 0 0 0 1024.1 1024.2 0.0
05/01:30am 8.8 8.1 6.9 88 0.9 CALM 0 0 0 0 1024.4 1024.5 0.0
05/01:00am 8.7 7.7 7.2 90 0.7 SSE 2 6 1 3 1024.6 1024.7 0.0
05/12:30am 8.7 8.0 6.8 88 0.9 CALM 0 0 0 0 1024.7 1024.8 0.0
05/12:00am 8.8 8.2 7.3 90 0.7 CALM 0 0 0 0 1024.8 1024.9 0.0
 
Date/Time
EST
Tmp

°C
App
Tmp
°C
Dew
Point
°C
Rel
Hum
%
Delta-T

°C
Wind Press
QNH
hPa
Press
MSL
hPa
Rain
since
9 am
mm
Dir
 
Spd
km/h
Gust
km/h
Spd
kts
Gust
kts
04/11:30pm 8.6 7.8 6.7 88 0.9 CALM 0 0 0 0 1025.0 1025.1 0.0
04/11:00pm 8.6 7.8 6.7 88 0.9 CALM 0 0 0 0 1025.1 1025.2 0.0
04/10:30pm 8.9 8.2 6.9 87 0.9 CALM 0 0 0 0 1025.2 1025.3 0.0
04/10:00pm 8.7 6.7 6.2 84 1.1 S 6 7 3 4 1025.4 1025.5 0.0
04/09:30pm 9.0 8.2 6.4 84 1.2 CALM 0 0 0 0 1025.3 1025.4 0.0
04/09:00pm 9.0 6.7 5.9 81 1.4 SSE 7 9 4 5 1025.3 1025.4 0.0
04/08:30pm 9.4 7.3 5.9 79 1.6 S 6 7 3 4 1025.2 1025.3 0.0
04/08:00pm 9.5 7.7 5.3 75 1.9 SSE 4 6 2 3 1025.0 1025.1 0.0
04/07:30pm 9.6 7.3 5.0 73 2.1 SSW 6 7 3 4 1025.0 1025.1 0.0
04/07:00pm 10.3 7.9 4.2 66 2.7 SSE 6 7 3 4 1024.9 1025.0 0.0
04/06:30pm 10.3 7.9 4.5 67 2.6 SSE 6 11 3 6 1024.7 1024.8 0.0
04/06:00pm 10.5 8.0 4.6 67 2.6 S 7 11 4 6 1024.5 1024.6 0.0
04/05:30pm 11.0 7.9 3.8 61 3.2 SW 9 17 5 9 1024.3 1024.4 0.0
04/05:00pm 11.3 8.4 4.5 63 3.1 S 9 15 5 8 1024.0 1024.1 0.0
04/04:30pm 11.4 8.1 4.6 63 3.1 SSW 11 17 6 9 1023.9 1024.0 0.0
04/04:00pm 11.7 8.0 4.7 62 3.2 SW 13 17 7 9 1023.8 1023.9 0.0
04/03:30pm 12.3 9.0 4.3 58 3.6 SSW 11 17 6 9 1023.7 1023.8 0.0
04/03:00pm 12.4 9.1 4.4 58 3.6 SE 11 15 6 8 1023.5 1023.6 0.0
04/02:30pm 12.1 8.5 3.1 54 4.0 SE 11 17 6 9 1023.6 1023.7 0.0
04/02:00pm 12.6 9.3 4.6 58 3.7 SSW 11 20 6 11 1023.9 1024.0 0.0
04/01:30pm 12.3 8.8 5.5 63 3.2 SW 13 19 7 10 1024.1 1024.2 0.0
04/01:00pm 12.3 9.2 3.8 56 3.8 SSW 9 19 5 10 1024.3 1024.4 0.0
04/12:30pm 12.1 8.5 2.8 53 4.1 S 11 19 6 10 1024.6 1024.7 0.0
04/12:00pm 12.7 9.6 3.6 54 4.1 SSW 9 19 5 10 1025.0 1025.1 0.0
04/11:30am 11.6 8.3 2.6 54 3.9 SSE 9 17 5 9 1025.3 1025.4 0.0
04/11:00am 11.6 8.4 3.1 56 3.7 SSW 9 19 5 10 1025.6 1025.7 0.0
04/10:30am 11.2 8.1 3.5 59 3.4 SSE 9 15 5 8 1025.7 1025.8 0.0
04/10:00am 10.5 6.8 2.6 58 3.4 SSE 11 17 6 9 1025.7 1025.8 0.0
04/09:30am 10.3 6.8 3.6 63 2.9 S 11 19 6 10 1025.7 1025.8 0.0
04/09:00am 9.9 6.3 3.2 63 2.9 SSW 11 17 6 9 1025.8 1025.9 0.0
04/08:30am 9.0 8.0 5.7 80 1.5 CALM 0 0 0 0 1025.6 1025.7 0.0
04/08:00am 8.0 7.1 6.0 87 0.9 CALM 0 0 0 0 1025.4 1025.5 0.0
04/07:30am 7.1 6.2 6.2 94 0.4 CALM 0 0 0 0 1025.2 1025.3 0.0
04/07:00am 6.7 5.8 6.1 96 0.3 CALM 0 0 0 0 1024.8 1024.9 0.0
04/06:30am 6.3 5.3 5.4 94 0.4 CALM 0 0 0 0 1024.4 1024.5 0.0
04/06:00am 6.5 5.5 5.5 93 0.4 CALM 0 0 0 0 1024.4 1024.5 0.0
04/05:30am 7.0 6.1 6.1 94 0.4 CALM 0 0 0 0 1024.2 1024.3 0.0
04/05:00am 7.0 6.1 5.9 93 0.5 CALM 0 0 0 0 1023.9 1024.0 0.0
04/04:30am 6.9 4.9 6.2 95 0.3 SSW 6 7 3 4 1023.6 1023.7 0.0
04/04:00am 6.8 5.9 5.9 94 0.4 CALM 0 0 0 0 1023.4 1023.5 0.0
04/03:30am 6.9 5.6 6.0 94 0.4 WSW 2 6 1 3 1023.5 1023.6 0.0
04/03:00am 6.7 5.4 5.8 94 0.4 SSE 2 6 1 3 1023.5 1023.6 0.0
04/02:30am 6.7 5.8 6.0 95 0.3 CALM 0 0 0 0 1023.7 1023.8 0.0
04/02:00am 6.6 5.7 5.9 95 0.3 CALM 0 0 0 0 1023.7 1023.8 0.0
04/01:30am 6.4 4.7 6.0 97 0.2 E 4 9 2 5 1023.7 1023.8 0.0
04/01:00am 5.8 4.0 5.2 96 0.3 NNW 4 6 2 3 1023.8 1023.9 0.0
04/12:30am 5.3 4.1 4.7 96 0.3 CALM 0 0 0 0 1023.7 1023.8 0.0
04/12:00am 5.4 4.2 4.7 95 0.3 CALM 0 0 0 0 1023.4 1023.5 0.0
 
Date/Time
EST
Tmp

°C
App
Tmp
°C
Dew
Point
°C
Rel
Hum
%
Delta-T

°C
Wind Press
QNH
hPa
Press
MSL
hPa
Rain
since
9 am
mm
Dir
 
Spd
km/h
Gust
km/h
Spd
kts
Gust
kts
03/11:30pm 5.5 4.2 4.2 91 0.6 CALM 0 0 0 0 1023.3 1023.4 0.0
03/11:00pm 6.9 4.2 5.7 92 0.5 S 9 11 5 6 1023.3 1023.4 0.0
03/10:30pm 7.4 6.5 6.2 92 0.5 CALM 0 0 0 0 1023.5 1023.6 0.0
03/10:00pm 7.6 6.7 6.2 91 0.6 CALM 0 0 0 0 1023.2 1023.3 0.0
03/09:30pm 7.4 6.5 6.2 92 0.5 CALM 0 0 0 0 1023.0 1023.1 0.0
03/09:00pm 7.0 4.9 5.6 91 0.6 ESE 6 6 3 3 1022.5 1022.6 0.0
03/08:30pm 7.5 5.1 5.3 86 1.0 SW 7 9 4 5 1022.1 1022.2 0.0
03/08:00pm 8.4 5.5 4.6 77 1.7 SSE 9 13 5 7 1021.7 1021.8 0.0
03/07:30pm 9.8 7.7 5.8 76 1.8 S 6 7 3 4 1021.3 1021.4 0.0
03/07:00pm 10.4 7.4 6.0 74 2.0 SSE 11 17 6 9 1020.8 1020.9 0.0
03/06:30pm 10.6 7.6 6.0 73 2.1 SSE 11 17 6 9 1020.3 1020.4 0.0
03/06:00pm 11.0 7.7 6.2 72 2.2 SSE 13 20 7 11 1019.7 1019.8 0.0
03/05:30pm 11.7 8.4 6.4 70 2.5 S 13 26 7 14 1019.0 1019.1 0.0
03/05:00pm 12.3 7.6 5.9 65 3.0 S 20 35 11 19 1018.2 1018.2 0.0
03/04:30pm 13.0 8.3 6.1 63 3.3 S 20 32 11 17 1017.5 1017.5 0.0
03/04:00pm 13.0 8.5 7.0 67 2.9 SSW 20 32 11 17 1017.0 1017.0 0.0
03/03:30pm 14.2 10.1 7.9 66 3.1 S 19 28 10 15 1016.5 1016.5 0.0
03/03:00pm 13.9 11.3 9.5 75 2.3 SW 13 20 7 11 1016.3 1016.3 0.0
03/02:30pm 13.5 11.1 8.8 73 2.4 S 11 17 6 9 1015.9 1015.9 0.0
03/02:00pm 14.1 11.4 8.9 71 2.6 S 13 20 7 11 1015.5 1015.5 0.0
03/01:30pm 14.0 11.8 9.2 73 2.5 SSE 11 17 6 9 1015.5 1015.5 0.0
03/01:00pm 13.9 11.1 8.7 71 2.6 S 13 19 7 10 1015.4 1015.4 0.0
03/12:30pm 13.9 11.2 9.1 73 2.4 SSE 13 19 7 10 1015.2 1015.2 0.0
03/12:00pm 13.2 11.0 9.5 78 1.9 SSE 11 17 6 9 1015.2 1015.2 0.0
03/11:30am 13.1 9.7 9.2 77 2.0 SSE 17 26 9 14 1014.9 1014.9 0.0
03/11:00am 13.2 10.3 8.3 72 2.4 S 13 19 7 10 1014.4 1014.4 0.0
03/10:30am 13.6 10.2 7.8 68 2.9 S 15 24 8 13 1013.8 1013.9 0.0
03/10:00am 13.7 9.3 7.2 65 3.2 S 20 30 11 16 1013.3 1013.4 0.0
03/09:30am 14.1 10.7 7.6 65 3.2 S 15 22 8 12 1012.6 1012.7 0.0
03/09:00am 13.2 10.4 6.8 65 3.1 SSE 11 19 6 10 1012.1 1012.2 3.4
03/08:30am 11.7 9.8 7.6 76 2.0 S 7 11 4 6 1011.5 1011.6 3.4
03/08:00am 10.1 8.8 9.3 95 0.4 S 6 7 3 4 1011.0 1011.1 3.4
03/07:30am 9.5 9.4 9.4 99 0.0 CALM 0 7 0 4 1010.2 1010.3 3.4
03/07:00am 8.7 7.6 8.6 99 0.0 SSW 4 7 2 4 1009.8 1009.9 3.4
03/06:30am 8.3 6.7 8.2 99 0.0 SSW 6 9 3 5 1009.3 1009.4 3.4
03/06:00am 7.5 6.9 7.4 99 0.0 CALM 0 7 0 4 1008.8 1008.9 3.4
03/05:30am 8.5 7.4 8.4 99 0.0 N 4 7 2 4 1008.5 1008.6 3.4
03/05:00am 8.9 8.6 8.8 99 0.0 CALM 0 0 0 0 1008.1 1008.1 3.4
03/04:30am 9.2 9.0 9.1 99 0.0 CALM 0 0 0 0 1007.9 1007.9 3.4
03/04:00am 9.3 9.1 9.2 99 0.0 CALM 0 0 0 0 1007.5 1007.5 3.4
03/03:30am 9.2 9.0 8.9 98 0.1 CALM 0 0 0 0 1007.2 1007.2 3.4
03/03:00am 9.6 9.5 9.3 98 0.1 CALM 0 0 0 0 1007.1 1007.1 3.4
03/02:30am 9.6 9.4 9.1 97 0.2 CALM 0 0 0 0 1007.0 1007.0 3.4
03/02:00am 9.8 9.2 9.0 95 0.4 SSW 2 6 1 3 1007.2 1007.2 3.4
03/01:30am 9.9 9.8 9.3 96 0.3 CALM 0 0 0 0 1007.3 1007.3 3.2
03/01:00am 10.1 8.3 9.6 97 0.3 SSE 9 11 5 6 1007.2 1007.2 3.2
03/12:30am 9.9 8.7 9.6 98 0.2 SE 6 9 3 5 1007.4 1007.4 3.2
03/12:00am 10.1 8.8 9.8 98 0.2 SSE 7 11 4 6 1007.4 1007.4 3.2
 
Date/Time
EST
Tmp

°C
App
Tmp
°C
Dew
Point
°C
Rel
Hum
%
Delta-T

°C
Wind Press
QNH
hPa
Press
MSL
hPa
Rain
since
9 am
mm
Dir
 
Spd
km/h
Gust
km/h
Spd
kts
Gust
kts
02/11:30pm 10.0 10.0 9.9 99 0.1 CALM 0 6 0 3 1007.4 1007.4 2.8
02/11:00pm 9.8 9.7 9.5 98 0.2 CALM 0 0 0 0 1007.8 1007.8 2.8
02/10:30pm 9.9 9.8 9.6 98 0.2 CALM 0 0 0 0 1008.1 1008.1 2.8
02/10:00pm 10.1 10.1 9.8 98 0.2 CALM 0 0 0 0 1008.3 1008.3 2.6
02/09:30pm 10.3 9.9 9.8 97 0.3 SSW 2 7 1 4 1008.4 1008.5 2.6
02/09:00pm 10.4 9.1 9.8 96 0.3 SE 7 9 4 5 1008.5 1008.6 2.6
02/08:30pm 10.7 9.3 9.6 93 0.6 NNW 7 11 4 6 1008.7 1008.8 2.2
02/08:00pm 11.1 9.6 9.2 88 1.0 SE 7 11 4 6 1008.4 1008.5 1.8
02/07:30pm 11.4 9.2 9.3 87 1.1 S 11 19 6 10 1008.2 1008.2 1.4
02/07:00pm 12.3 10.0 9.0 80 1.7 W 11 20 6 11 1008.4 1008.5 0.6
02/06:30pm 12.2 12.4 10.6 90 0.8 CALM 0 0 0 0 1007.9 1007.9 0.0
02/06:00pm 12.5 12.5 9.9 84 1.3 CALM 0 0 0 0 1007.7 1007.7 0.0
02/05:30pm 13.3 13.1 9.2 76 2.1 CALM 0 0 0 0 1007.4 1007.4 0.0
02/05:00pm 13.4 11.2 9.3 76 2.1 ESE 11 11 6 6 1007.1 1007.1 0.0
02/04:30pm 15.1 13.9 9.5 69 2.9 E 6 7 3 4 1007.3 1007.3 0.0
02/04:00pm 16.2 14.1 8.2 59 4.1 E 9 13 5 7 1007.0 1007.0 0.0

Latest Capital City Observations: Canberra | Sydney | Melbourne | Brisbane | Adelaide | Perth | Hobart | Darwin

Other Formats:

Comma delimited format used in spreadsheet applications
http://www.bom.gov.au/fwo/IDV60901/IDV60901.94864.axf

JavaScript Object Notation format (JSON) in row-major order
http://www.bom.gov.au/fwo/IDV60901/IDV60901.94864.json